sensor_id;sensor_type;location;lat;lon;timestamp;P1;durP1;ratioP1;P2;durP2;ratioP2
74939;SDS011;63505;45.226;37.908;2023-07-16T00:00:51;15.82;;;9.50;;
74939;SDS011;63505;45.226;37.908;2023-07-16T00:03:17;14.90;;;9.52;;
74939;SDS011;63505;45.226;37.908;2023-07-16T00:05:43;20.05;;;10.43;;
74939;SDS011;63505;45.226;37.908;2023-07-16T00:08:09;17.70;;;9.77;;
74939;SDS011;63505;45.226;37.908;2023-07-16T00:10:35;19.70;;;10.30;;
74939;SDS011;63505;45.226;37.908;2023-07-16T00:13:02;20.67;;;11.10;;
74939;SDS011;63505;45.226;37.908;2023-07-16T00:15:29;16.80;;;10.10;;
74939;SDS011;63505;45.226;37.908;2023-07-16T00:17:55;19.20;;;10.23;;
74939;SDS011;63505;45.226;37.908;2023-07-16T00:20:21;17.48;;;11.73;;
74939;SDS011;63505;45.226;37.908;2023-07-16T00:22:49;20.27;;;10.57;;
74939;SDS011;63505;45.226;37.908;2023-07-16T00:25:15;20.85;;;10.50;;
74939;SDS011;63505;45.226;37.908;2023-07-16T00:27:42;19.15;;;10.90;;
74939;SDS011;63505;45.226;37.908;2023-07-16T00:30:08;16.98;;;10.02;;
74939;SDS011;63505;45.226;37.908;2023-07-16T00:32:34;21.05;;;11.50;;
74939;SDS011;63505;45.226;37.908;2023-07-16T00:35:03;15.88;;;11.07;;
74939;SDS011;63505;45.226;37.908;2023-07-16T00:37:32;19.90;;;11.23;;
74939;SDS011;63505;45.226;37.908;2023-07-16T00:39:59;18.30;;;10.40;;
74939;SDS011;63505;45.226;37.908;2023-07-16T00:42:26;15.52;;;9.95;;
74939;SDS011;63505;45.226;37.908;2023-07-16T00:44:52;17.80;;;11.63;;
74939;SDS011;63505;45.226;37.908;2023-07-16T00:47:22;24.08;;;13.77;;
74939;SDS011;63505;45.226;37.908;2023-07-16T00:49:49;21.02;;;11.57;;
74939;SDS011;63505;45.226;37.908;2023-07-16T00:52:18;18.10;;;11.50;;
74939;SDS011;63505;45.226;37.908;2023-07-16T00:54:46;17.63;;;11.15;;
74939;SDS011;63505;45.226;37.908;2023-07-16T00:57:15;17.20;;;9.68;;
74939;SDS011;63505;45.226;37.908;2023-07-16T00:59:40;15.15;;;9.75;;
74939;SDS011;63505;45.226;37.908;2023-07-16T01:02:06;20.48;;;10.75;;
74939;SDS011;63505;45.226;37.908;2023-07-16T01:04:32;18.95;;;9.73;;
74939;SDS011;63505;45.226;37.908;2023-07-16T01:07:01;16.80;;;9.95;;
74939;SDS011;63505;45.226;37.908;2023-07-16T01:09:32;17.73;;;10.43;;
74939;SDS011;63505;45.226;37.908;2023-07-16T01:12:02;12.57;;;9.15;;
74939;SDS011;63505;45.226;37.908;2023-07-16T01:14:30;15.43;;;10.57;;
74939;SDS011;63505;45.226;37.908;2023-07-16T01:16:58;18.17;;;10.43;;
74939;SDS011;63505;45.226;37.908;2023-07-16T01:19:27;17.67;;;9.75;;
74939;SDS011;63505;45.226;37.908;2023-07-16T01:22:09;16.08;;;9.10;;
74939;SDS011;63505;45.226;37.908;2023-07-16T01:24:53;18.23;;;10.27;;
74939;SDS011;63505;45.226;37.908;2023-07-16T01:30:11;15.32;;;9.32;;
74939;SDS011;63505;45.226;37.908;2023-07-16T01:32:41;12.95;;;9.25;;
74939;SDS011;63505;45.226;37.908;2023-07-16T01:35:08;16.42;;;9.73;;
74939;SDS011;63505;45.226;37.908;2023-07-16T01:37:35;16.50;;;9.70;;
74939;SDS011;63505;45.226;37.908;2023-07-16T01:40:03;15.75;;;9.75;;
74939;SDS011;63505;45.226;37.908;2023-07-16T01:42:30;13.73;;;9.52;;
74939;SDS011;63505;45.226;37.908;2023-07-16T01:44:58;15.55;;;10.07;;
74939;SDS011;63505;45.226;37.908;2023-07-16T01:49:59;15.82;;;10.43;;
74939;SDS011;63505;45.226;37.908;2023-07-16T01:55:11;20.65;;;10.50;;
74939;SDS011;63505;45.226;37.908;2023-07-16T01:57:37;22.60;;;12.57;;
74939;SDS011;63505;45.226;37.908;2023-07-16T02:00:04;13.30;;;10.57;;
74939;SDS011;63505;45.226;37.908;2023-07-16T02:02:30;19.52;;;10.10;;
74939;SDS011;63505;45.226;37.908;2023-07-16T02:04:56;18.65;;;10.55;;
74939;SDS011;63505;45.226;37.908;2023-07-16T02:07:22;16.95;;;10.75;;
74939;SDS011;63505;45.226;37.908;2023-07-16T02:09:49;17.25;;;10.85;;
74939;SDS011;63505;45.226;37.908;2023-07-16T02:12:17;13.70;;;9.98;;
74939;SDS011;63505;45.226;37.908;2023-07-16T02:14:43;18.40;;;11.90;;
74939;SDS011;63505;45.226;37.908;2023-07-16T02:17:09;16.38;;;9.65;;
74939;SDS011;63505;45.226;37.908;2023-07-16T02:19:36;16.60;;;10.27;;
74939;SDS011;63505;45.226;37.908;2023-07-16T02:22:02;23.70;;;10.77;;
74939;SDS011;63505;45.226;37.908;2023-07-16T02:24:29;19.45;;;11.02;;
74939;SDS011;63505;45.226;37.908;2023-07-16T02:26:55;23.88;;;11.20;;
74939;SDS011;63505;45.226;37.908;2023-07-16T02:29:22;17.48;;;10.93;;
74939;SDS011;63505;45.226;37.908;2023-07-16T02:31:49;21.13;;;10.70;;
74939;SDS011;63505;45.226;37.908;2023-07-16T02:34:15;22.10;;;12.77;;
74939;SDS011;63505;45.226;37.908;2023-07-16T02:36:41;16.27;;;10.98;;
74939;SDS011;63505;45.226;37.908;2023-07-16T02:39:07;16.52;;;10.93;;
74939;SDS011;63505;45.226;37.908;2023-07-16T02:41:33;22.20;;;12.20;;
74939;SDS011;63505;45.226;37.908;2023-07-16T02:44:00;20.02;;;11.65;;
74939;SDS011;63505;45.226;37.908;2023-07-16T02:46:26;16.23;;;9.60;;
74939;SDS011;63505;45.226;37.908;2023-07-16T02:48:54;14.32;;;9.48;;
74939;SDS011;63505;45.226;37.908;2023-07-16T02:51:21;17.08;;;11.02;;
74939;SDS011;63505;45.226;37.908;2023-07-16T02:53:48;18.05;;;11.30;;
74939;SDS011;63505;45.226;37.908;2023-07-16T02:56:14;18.27;;;10.05;;
74939;SDS011;63505;45.226;37.908;2023-07-16T02:58:41;17.50;;;10.38;;
74939;SDS011;63505;45.226;37.908;2023-07-16T03:01:07;19.33;;;11.23;;
74939;SDS011;63505;45.226;37.908;2023-07-16T03:03:33;16.45;;;10.77;;
74939;SDS011;63505;45.226;37.908;2023-07-16T03:06:00;16.15;;;10.70;;
74939;SDS011;63505;45.226;37.908;2023-07-16T03:08:26;17.92;;;11.13;;
74939;SDS011;63505;45.226;37.908;2023-07-16T03:10:55;17.63;;;10.35;;
74939;SDS011;63505;45.226;37.908;2023-07-16T03:13:22;20.67;;;11.40;;
74939;SDS011;63505;45.226;37.908;2023-07-16T03:15:48;18.77;;;10.68;;
74939;SDS011;63505;45.226;37.908;2023-07-16T03:18:15;19.42;;;9.30;;
74939;SDS011;63505;45.226;37.908;2023-07-16T03:23:11;14.00;;;9.75;;
74939;SDS011;63505;45.226;37.908;2023-07-16T03:25:36;16.42;;;9.32;;
74939;SDS011;63505;45.226;37.908;2023-07-16T03:28:03;14.45;;;9.85;;
74939;SDS011;63505;45.226;37.908;2023-07-16T03:30:30;14.65;;;10.00;;
74939;SDS011;63505;45.226;37.908;2023-07-16T03:32:57;15.13;;;8.68;;
74939;SDS011;63505;45.226;37.908;2023-07-16T03:35:24;14.98;;;9.23;;
74939;SDS011;63505;45.226;37.908;2023-07-16T03:37:51;18.23;;;8.90;;
74939;SDS011;63505;45.226;37.908;2023-07-16T03:40:17;13.27;;;9.15;;
74939;SDS011;63505;45.226;37.908;2023-07-16T03:42:48;13.57;;;9.32;;
74939;SDS011;63505;45.226;37.908;2023-07-16T03:45:13;14.63;;;8.05;;
74939;SDS011;63505;45.226;37.908;2023-07-16T03:47:40;15.00;;;7.90;;
74939;SDS011;63505;45.226;37.908;2023-07-16T03:50:06;13.45;;;8.43;;
74939;SDS011;63505;45.226;37.908;2023-07-16T03:52:32;10.35;;;6.88;;
74939;SDS011;63505;45.226;37.908;2023-07-16T03:54:59;10.77;;;7.82;;
74939;SDS011;63505;45.226;37.908;2023-07-16T03:57:29;12.73;;;7.38;;
74939;SDS011;63505;45.226;37.908;2023-07-16T03:59:55;14.57;;;7.35;;
74939;SDS011;63505;45.226;37.908;2023-07-16T04:02:21;12.88;;;7.13;;
74939;SDS011;63505;45.226;37.908;2023-07-16T04:04:50;10.38;;;6.25;;
74939;SDS011;63505;45.226;37.908;2023-07-16T04:07:18;9.45;;;5.80;;
74939;SDS011;63505;45.226;37.908;2023-07-16T04:09:44;11.90;;;5.43;;
74939;SDS011;63505;45.226;37.908;2023-07-16T04:12:09;9.25;;;5.78;;
74939;SDS011;63505;45.226;37.908;2023-07-16T04:14:35;9.13;;;4.72;;
74939;SDS011;63505;45.226;37.908;2023-07-16T04:17:04;8.32;;;5.05;;
74939;SDS011;63505;45.226;37.908;2023-07-16T04:19:30;9.35;;;4.97;;
74939;SDS011;63505;45.226;37.908;2023-07-16T04:21:56;6.78;;;5.13;;
74939;SDS011;63505;45.226;37.908;2023-07-16T04:24:21;7.88;;;4.03;;
74939;SDS011;63505;45.226;37.908;2023-07-16T04:26:50;10.35;;;4.50;;
74939;SDS011;63505;45.226;37.908;2023-07-16T04:29:16;7.45;;;4.00;;
74939;SDS011;63505;45.226;37.908;2023-07-16T04:31:42;9.70;;;4.30;;
74939;SDS011;63505;45.226;37.908;2023-07-16T04:34:08;5.88;;;3.70;;
74939;SDS011;63505;45.226;37.908;2023-07-16T04:36:34;11.57;;;4.20;;
74939;SDS011;63505;45.226;37.908;2023-07-16T04:39:00;8.70;;;3.72;;
74939;SDS011;63505;45.226;37.908;2023-07-16T04:41:27;7.82;;;3.83;;
74939;SDS011;63505;45.226;37.908;2023-07-16T04:43:52;5.82;;;3.90;;
74939;SDS011;63505;45.226;37.908;2023-07-16T04:46:19;4.97;;;3.20;;
74939;SDS011;63505;45.226;37.908;2023-07-16T04:48:45;6.97;;;3.70;;
74939;SDS011;63505;45.226;37.908;2023-07-16T04:51:14;4.45;;;2.90;;
74939;SDS011;63505;45.226;37.908;2023-07-16T04:53:40;5.70;;;3.33;;
74939;SDS011;63505;45.226;37.908;2023-07-16T04:56:10;5.70;;;3.22;;
74939;SDS011;63505;45.226;37.908;2023-07-16T04:58:38;8.82;;;3.28;;
74939;SDS011;63505;45.226;37.908;2023-07-16T05:01:05;7.38;;;3.22;;
74939;SDS011;63505;45.226;37.908;2023-07-16T05:03:33;4.20;;;2.75;;
74939;SDS011;63505;45.226;37.908;2023-07-16T05:05:59;5.50;;;2.83;;
74939;SDS011;63505;45.226;37.908;2023-07-16T05:08:26;4.57;;;2.92;;
74939;SDS011;63505;45.226;37.908;2023-07-16T05:10:51;4.22;;;3.05;;
74939;SDS011;63505;45.226;37.908;2023-07-16T05:13:18;5.82;;;2.97;;
74939;SDS011;63505;45.226;37.908;2023-07-16T05:15:44;7.18;;;2.20;;
74939;SDS011;63505;45.226;37.908;2023-07-16T05:18:10;5.22;;;2.72;;
74939;SDS011;63505;45.226;37.908;2023-07-16T05:20:35;4.10;;;2.20;;
74939;SDS011;63505;45.226;37.908;2023-07-16T05:23:05;4.97;;;2.63;;
74939;SDS011;63505;45.226;37.908;2023-07-16T05:25:32;4.32;;;2.20;;
74939;SDS011;63505;45.226;37.908;2023-07-16T05:27:58;3.45;;;2.45;;
74939;SDS011;63505;45.226;37.908;2023-07-16T05:30:26;5.45;;;2.15;;
74939;SDS011;63505;45.226;37.908;2023-07-16T05:32:55;3.25;;;1.90;;
74939;SDS011;63505;45.226;37.908;2023-07-16T05:35:20;3.05;;;2.20;;
74939;SDS011;63505;45.226;37.908;2023-07-16T05:37:48;4.55;;;2.00;;
74939;SDS011;63505;45.226;37.908;2023-07-16T05:40:14;9.18;;;2.30;;
74939;SDS011;63505;45.226;37.908;2023-07-16T05:42:40;5.72;;;2.17;;
74939;SDS011;63505;45.226;37.908;2023-07-16T05:45:05;2.95;;;2.05;;
74939;SDS011;63505;45.226;37.908;2023-07-16T05:47:33;5.05;;;1.67;;
74939;SDS011;63505;45.226;37.908;2023-07-16T05:49:59;5.72;;;2.30;;
74939;SDS011;63505;45.226;37.908;2023-07-16T05:52:26;4.45;;;1.80;;
74939;SDS011;63505;45.226;37.908;2023-07-16T05:54:52;4.75;;;2.08;;
74939;SDS011;63505;45.226;37.908;2023-07-16T05:57:19;3.03;;;1.70;;
74939;SDS011;63505;45.226;37.908;2023-07-16T05:59:46;4.05;;;1.83;;
74939;SDS011;63505;45.226;37.908;2023-07-16T06:02:13;4.88;;;1.70;;
74939;SDS011;63505;45.226;37.908;2023-07-16T06:04:39;6.35;;;1.88;;
74939;SDS011;63505;45.226;37.908;2023-07-16T06:07:05;14.10;;;10.95;;
74939;SDS011;63505;45.226;37.908;2023-07-16T06:09:31;5.70;;;1.95;;
74939;SDS011;63505;45.226;37.908;2023-07-16T06:11:59;15.50;;;4.57;;
74939;SDS011;63505;45.226;37.908;2023-07-16T06:14:25;8.93;;;2.45;;
74939;SDS011;63505;45.226;37.908;2023-07-16T06:16:51;3.42;;;2.03;;
74939;SDS011;63505;45.226;37.908;2023-07-16T06:19:18;5.18;;;2.05;;
74939;SDS011;63505;45.226;37.908;2023-07-16T06:21:46;4.30;;;1.90;;
74939;SDS011;63505;45.226;37.908;2023-07-16T06:24:12;5.78;;;2.13;;
74939;SDS011;63505;45.226;37.908;2023-07-16T06:26:38;5.65;;;2.10;;
74939;SDS011;63505;45.226;37.908;2023-07-16T06:29:04;6.85;;;2.35;;
74939;SDS011;63505;45.226;37.908;2023-07-16T06:31:30;3.95;;;1.70;;
74939;SDS011;63505;45.226;37.908;2023-07-16T06:33:57;4.03;;;2.28;;
74939;SDS011;63505;45.226;37.908;2023-07-16T06:36:28;5.90;;;1.95;;
74939;SDS011;63505;45.226;37.908;2023-07-16T06:38:53;5.00;;;1.88;;
74939;SDS011;63505;45.226;37.908;2023-07-16T06:41:19;5.55;;;2.42;;
74939;SDS011;63505;45.226;37.908;2023-07-16T06:43:45;3.75;;;2.17;;
74939;SDS011;63505;45.226;37.908;2023-07-16T06:46:12;7.18;;;2.08;;
74939;SDS011;63505;45.226;37.908;2023-07-16T06:48:37;5.38;;;2.40;;
74939;SDS011;63505;45.226;37.908;2023-07-16T06:51:03;5.72;;;2.25;;
74939;SDS011;63505;45.226;37.908;2023-07-16T06:53:29;5.95;;;2.47;;
74939;SDS011;63505;45.226;37.908;2023-07-16T06:55:56;4.88;;;1.98;;
74939;SDS011;63505;45.226;37.908;2023-07-16T06:58:24;5.10;;;2.60;;
74939;SDS011;63505;45.226;37.908;2023-07-16T07:00:59;5.85;;;2.40;;
74939;SDS011;63505;45.226;37.908;2023-07-16T07:03:26;4.55;;;2.10;;
74939;SDS011;63505;45.226;37.908;2023-07-16T07:05:53;4.22;;;1.73;;
74939;SDS011;63505;45.226;37.908;2023-07-16T07:08:20;10.40;;;2.85;;
74939;SDS011;63505;45.226;37.908;2023-07-16T07:10:48;6.63;;;2.15;;
74939;SDS011;63505;45.226;37.908;2023-07-16T07:13:17;5.20;;;2.20;;
74939;SDS011;63505;45.226;37.908;2023-07-16T07:15:46;3.95;;;1.83;;
74939;SDS011;63505;45.226;37.908;2023-07-16T07:18:12;5.38;;;1.90;;
74939;SDS011;63505;45.226;37.908;2023-07-16T07:20:41;6.13;;;1.85;;
74939;SDS011;63505;45.226;37.908;2023-07-16T07:23:08;3.50;;;2.00;;
74939;SDS011;63505;45.226;37.908;2023-07-16T07:28:01;4.90;;;2.45;;
74939;SDS011;63505;45.226;37.908;2023-07-16T07:30:27;5.60;;;2.50;;
74939;SDS011;63505;45.226;37.908;2023-07-16T07:32:53;7.68;;;2.60;;
74939;SDS011;63505;45.226;37.908;2023-07-16T07:35:20;4.38;;;1.83;;
74939;SDS011;63505;45.226;37.908;2023-07-16T07:37:47;3.50;;;2.00;;
74939;SDS011;63505;45.226;37.908;2023-07-16T07:40:15;4.00;;;1.90;;
74939;SDS011;63505;45.226;37.908;2023-07-16T07:42:41;4.65;;;2.10;;
74939;SDS011;63505;45.226;37.908;2023-07-16T07:45:11;3.55;;;1.83;;
74939;SDS011;63505;45.226;37.908;2023-07-16T07:47:37;3.45;;;1.60;;
74939;SDS011;63505;45.226;37.908;2023-07-16T07:50:03;4.03;;;1.95;;
74939;SDS011;63505;45.226;37.908;2023-07-16T07:52:29;6.65;;;2.22;;
74939;SDS011;63505;45.226;37.908;2023-07-16T07:54:56;5.85;;;1.75;;
74939;SDS011;63505;45.226;37.908;2023-07-16T07:57:22;3.00;;;1.70;;
74939;SDS011;63505;45.226;37.908;2023-07-16T07:59:48;3.00;;;1.70;;
74939;SDS011;63505;45.226;37.908;2023-07-16T08:02:16;5.45;;;2.22;;
74939;SDS011;63505;45.226;37.908;2023-07-16T08:04:45;5.50;;;1.67;;
74939;SDS011;63505;45.226;37.908;2023-07-16T08:07:11;4.30;;;1.80;;
74939;SDS011;63505;45.226;37.908;2023-07-16T08:09:39;8.07;;;1.98;;
74939;SDS011;63505;45.226;37.908;2023-07-16T08:12:05;2.72;;;1.70;;
74939;SDS011;63505;45.226;37.908;2023-07-16T08:14:31;4.38;;;1.60;;
74939;SDS011;63505;45.226;37.908;2023-07-16T08:16:57;3.83;;;2.05;;
74939;SDS011;63505;45.226;37.908;2023-07-16T08:19:23;4.55;;;1.85;;
74939;SDS011;63505;45.226;37.908;2023-07-16T08:21:51;5.70;;;2.00;;
74939;SDS011;63505;45.226;37.908;2023-07-16T08:24:17;5.78;;;1.80;;
74939;SDS011;63505;45.226;37.908;2023-07-16T08:26:43;4.63;;;1.85;;
74939;SDS011;63505;45.226;37.908;2023-07-16T08:29:13;3.20;;;1.65;;
74939;SDS011;63505;45.226;37.908;2023-07-16T08:31:40;6.25;;;1.80;;
74939;SDS011;63505;45.226;37.908;2023-07-16T08:34:05;4.13;;;2.35;;
74939;SDS011;63505;45.226;37.908;2023-07-16T08:36:32;11.23;;;2.10;;
74939;SDS011;63505;45.226;37.908;2023-07-16T08:38:59;4.07;;;1.70;;
74939;SDS011;63505;45.226;37.908;2023-07-16T08:41:26;3.58;;;1.98;;
74939;SDS011;63505;45.226;37.908;2023-07-16T08:43:55;4.22;;;1.85;;
74939;SDS011;63505;45.226;37.908;2023-07-16T08:46:22;4.82;;;1.90;;
74939;SDS011;63505;45.226;37.908;2023-07-16T08:48:49;5.70;;;1.80;;
74939;SDS011;63505;45.226;37.908;2023-07-16T08:51:17;4.22;;;1.80;;
74939;SDS011;63505;45.226;37.908;2023-07-16T08:53:48;2.90;;;1.45;;
74939;SDS011;63505;45.226;37.908;2023-07-16T08:56:14;5.05;;;1.95;;
74939;SDS011;63505;45.226;37.908;2023-07-16T08:58:41;4.70;;;1.48;;
74939;SDS011;63505;45.226;37.908;2023-07-16T09:01:10;4.07;;;1.70;;
74939;SDS011;63505;45.226;37.908;2023-07-16T09:03:38;3.70;;;1.90;;
74939;SDS011;63505;45.226;37.908;2023-07-16T09:08:49;4.53;;;2.20;;
74939;SDS011;63505;45.226;37.908;2023-07-16T09:11:15;5.53;;;2.55;;
74939;SDS011;63505;45.226;37.908;2023-07-16T09:13:47;6.95;;;2.15;;
74939;SDS011;63505;45.226;37.908;2023-07-16T09:16:13;3.95;;;2.08;;
74939;SDS011;63505;45.226;37.908;2023-07-16T09:18:42;3.83;;;2.00;;
74939;SDS011;63505;45.226;37.908;2023-07-16T09:21:10;5.45;;;2.03;;
74939;SDS011;63505;45.226;37.908;2023-07-16T09:23:37;5.68;;;2.00;;
74939;SDS011;63505;45.226;37.908;2023-07-16T09:26:04;4.28;;;2.00;;
74939;SDS011;63505;45.226;37.908;2023-07-16T09:28:31;7.57;;;2.83;;
74939;SDS011;63505;45.226;37.908;2023-07-16T09:31:03;4.47;;;1.65;;
74939;SDS011;63505;45.226;37.908;2023-07-16T09:33:35;4.50;;;1.55;;
74939;SDS011;63505;45.226;37.908;2023-07-16T09:36:01;4.35;;;2.20;;
74939;SDS011;63505;45.226;37.908;2023-07-16T09:38:28;3.15;;;1.85;;
74939;SDS011;63505;45.226;37.908;2023-07-16T09:40:55;3.35;;;1.80;;
74939;SDS011;63505;45.226;37.908;2023-07-16T09:43:25;4.25;;;2.08;;
74939;SDS011;63505;45.226;37.908;2023-07-16T09:45:51;5.25;;;2.50;;
74939;SDS011;63505;45.226;37.908;2023-07-16T09:48:19;3.03;;;1.88;;
74939;SDS011;63505;45.226;37.908;2023-07-16T09:50:49;6.68;;;1.83;;
74939;SDS011;63505;45.226;37.908;2023-07-16T09:53:18;5.18;;;1.98;;
74939;SDS011;63505;45.226;37.908;2023-07-16T09:55:46;4.82;;;2.22;;
74939;SDS011;63505;45.226;37.908;2023-07-16T09:58:13;6.80;;;2.20;;
74939;SDS011;63505;45.226;37.908;2023-07-16T10:00:42;3.78;;;1.67;;
74939;SDS011;63505;45.226;37.908;2023-07-16T10:03:09;6.85;;;1.77;;
74939;SDS011;63505;45.226;37.908;2023-07-16T10:05:36;5.13;;;2.80;;
74939;SDS011;63505;45.226;37.908;2023-07-16T10:08:03;5.70;;;2.05;;
74939;SDS011;63505;45.226;37.908;2023-07-16T10:10:43;7.03;;;3.40;;
74939;SDS011;63505;45.226;37.908;2023-07-16T10:13:22;3.88;;;1.65;;
74939;SDS011;63505;45.226;37.908;2023-07-16T10:15:56;8.27;;;1.77;;
74939;SDS011;63505;45.226;37.908;2023-07-16T10:18:31;5.90;;;2.55;;
74939;SDS011;63505;45.226;37.908;2023-07-16T10:21:06;5.47;;;1.70;;
74939;SDS011;63505;45.226;37.908;2023-07-16T10:23:38;3.78;;;1.48;;
74939;SDS011;63505;45.226;37.908;2023-07-16T10:26:10;2.42;;;1.27;;
74939;SDS011;63505;45.226;37.908;2023-07-16T10:28:39;10.93;;;1.75;;
74939;SDS011;63505;45.226;37.908;2023-07-16T10:31:06;3.08;;;1.80;;
74939;SDS011;63505;45.226;37.908;2023-07-16T10:33:55;3.88;;;1.20;;
74939;SDS011;63505;45.226;37.908;2023-07-16T10:36:25;4.57;;;2.03;;
74939;SDS011;63505;45.226;37.908;2023-07-16T10:38:52;5.03;;;1.90;;
74939;SDS011;63505;45.226;37.908;2023-07-16T10:41:18;5.10;;;2.17;;
74939;SDS011;63505;45.226;37.908;2023-07-16T10:43:43;3.38;;;1.50;;
74939;SDS011;63505;45.226;37.908;2023-07-16T10:46:11;4.85;;;2.10;;
74939;SDS011;63505;45.226;37.908;2023-07-16T10:48:37;10.23;;;4.03;;
74939;SDS011;63505;45.226;37.908;2023-07-16T10:51:04;11.48;;;3.50;;
74939;SDS011;63505;45.226;37.908;2023-07-16T10:53:30;4.38;;;2.25;;
74939;SDS011;63505;45.226;37.908;2023-07-16T10:58:26;8.18;;;1.83;;
74939;SDS011;63505;45.226;37.908;2023-07-16T11:00:52;4.53;;;1.90;;
74939;SDS011;63505;45.226;37.908;2023-07-16T11:03:18;9.38;;;2.00;;
74939;SDS011;63505;45.226;37.908;2023-07-16T11:05:45;6.60;;;2.65;;
74939;SDS011;63505;45.226;37.908;2023-07-16T11:08:21;5.20;;;1.70;;
74939;SDS011;63505;45.226;37.908;2023-07-16T11:10:55;4.88;;;1.73;;
74939;SDS011;63505;45.226;37.908;2023-07-16T11:13:26;5.50;;;1.67;;
74939;SDS011;63505;45.226;37.908;2023-07-16T11:15:54;7.30;;;2.72;;
74939;SDS011;63505;45.226;37.908;2023-07-16T11:18:22;2.92;;;1.48;;
74939;SDS011;63505;45.226;37.908;2023-07-16T11:20:53;3.90;;;1.85;;
74939;SDS011;63505;45.226;37.908;2023-07-16T11:23:19;6.57;;;1.30;;
74939;SDS011;63505;45.226;37.908;2023-07-16T11:25:47;2.75;;;1.00;;
74939;SDS011;63505;45.226;37.908;2023-07-16T11:28:14;3.92;;;1.42;;
74939;SDS011;63505;45.226;37.908;2023-07-16T11:30:42;4.55;;;1.60;;
74939;SDS011;63505;45.226;37.908;2023-07-16T11:33:09;3.65;;;1.50;;
74939;SDS011;63505;45.226;37.908;2023-07-16T11:35:37;2.47;;;1.00;;
74939;SDS011;63505;45.226;37.908;2023-07-16T11:38:07;2.75;;;1.25;;
74939;SDS011;63505;45.226;37.908;2023-07-16T11:40:34;3.10;;;1.15;;
74939;SDS011;63505;45.226;37.908;2023-07-16T11:43:08;2.33;;;0.75;;
74939;SDS011;63505;45.226;37.908;2023-07-16T11:45:38;2.47;;;1.00;;
74939;SDS011;63505;45.226;37.908;2023-07-16T11:48:06;3.47;;;1.48;;
74939;SDS011;63505;45.226;37.908;2023-07-16T11:50:33;4.50;;;1.48;;
74939;SDS011;63505;45.226;37.908;2023-07-16T11:53:00;3.50;;;1.35;;
74939;SDS011;63505;45.226;37.908;2023-07-16T11:55:28;4.47;;;1.13;;
74939;SDS011;63505;45.226;37.908;2023-07-16T11:57:54;2.40;;;1.20;;
74939;SDS011;63505;45.226;37.908;2023-07-16T12:00:23;1.73;;;1.00;;
74939;SDS011;63505;45.226;37.908;2023-07-16T12:02:49;3.10;;;1.02;;
74939;SDS011;63505;45.226;37.908;2023-07-16T12:05:21;5.25;;;2.08;;
74939;SDS011;63505;45.226;37.908;2023-07-16T12:07:50;2.85;;;1.20;;
74939;SDS011;63505;45.226;37.908;2023-07-16T12:10:16;3.17;;;1.27;;
74939;SDS011;63505;45.226;37.908;2023-07-16T12:12:42;9.07;;;1.25;;
74939;SDS011;63505;45.226;37.908;2023-07-16T12:15:09;2.35;;;1.08;;
74939;SDS011;63505;45.226;37.908;2023-07-16T12:17:35;4.43;;;1.13;;
74939;SDS011;63505;45.226;37.908;2023-07-16T12:20:03;7.88;;;1.65;;
74939;SDS011;63505;45.226;37.908;2023-07-16T12:22:31;3.67;;;0.88;;
74939;SDS011;63505;45.226;37.908;2023-07-16T12:24:57;3.25;;;1.00;;
74939;SDS011;63505;45.226;37.908;2023-07-16T12:27:25;7.82;;;1.27;;
74939;SDS011;63505;45.226;37.908;2023-07-16T12:29:54;3.63;;;1.30;;
74939;SDS011;63505;45.226;37.908;2023-07-16T12:32:21;3.50;;;1.17;;
74939;SDS011;63505;45.226;37.908;2023-07-16T12:34:49;2.67;;;1.30;;
74939;SDS011;63505;45.226;37.908;2023-07-16T12:37:15;4.50;;;1.08;;
74939;SDS011;63505;45.226;37.908;2023-07-16T12:39:42;3.35;;;2.35;;
74939;SDS011;63505;45.226;37.908;2023-07-16T12:42:08;4.97;;;1.63;;
74939;SDS011;63505;45.226;37.908;2023-07-16T12:44:34;7.18;;;3.70;;
74939;SDS011;63505;45.226;37.908;2023-07-16T12:47:01;2.67;;;1.15;;
74939;SDS011;63505;45.226;37.908;2023-07-16T12:49:26;3.50;;;1.30;;
74939;SDS011;63505;45.226;37.908;2023-07-16T12:51:54;6.60;;;1.90;;
74939;SDS011;63505;45.226;37.908;2023-07-16T12:54:21;4.60;;;1.52;;
74939;SDS011;63505;45.226;37.908;2023-07-16T12:56:48;3.72;;;1.58;;
74939;SDS011;63505;45.226;37.908;2023-07-16T12:59:15;3.50;;;1.73;;
74939;SDS011;63505;45.226;37.908;2023-07-16T13:01:41;2.17;;;1.13;;
74939;SDS011;63505;45.226;37.908;2023-07-16T13:04:07;4.00;;;1.45;;
74939;SDS011;63505;45.226;37.908;2023-07-16T13:06:33;5.32;;;1.23;;
74939;SDS011;63505;45.226;37.908;2023-07-16T13:08:59;3.72;;;1.10;;
74939;SDS011;63505;45.226;37.908;2023-07-16T13:11:25;5.47;;;1.38;;
74939;SDS011;63505;45.226;37.908;2023-07-16T13:13:52;2.60;;;1.25;;
74939;SDS011;63505;45.226;37.908;2023-07-16T13:16:19;2.95;;;1.10;;
74939;SDS011;63505;45.226;37.908;2023-07-16T13:18:45;2.83;;;0.93;;
74939;SDS011;63505;45.226;37.908;2023-07-16T13:21:11;3.60;;;1.25;;
74939;SDS011;63505;45.226;37.908;2023-07-16T13:23:37;6.18;;;1.48;;
74939;SDS011;63505;45.226;37.908;2023-07-16T13:26:04;5.40;;;1.60;;
74939;SDS011;63505;45.226;37.908;2023-07-16T13:28:30;5.05;;;1.48;;
74939;SDS011;63505;45.226;37.908;2023-07-16T13:30:57;6.97;;;1.60;;
74939;SDS011;63505;45.226;37.908;2023-07-16T13:33:23;4.35;;;1.60;;
74939;SDS011;63505;45.226;37.908;2023-07-16T13:35:49;6.70;;;1.30;;
74939;SDS011;63505;45.226;37.908;2023-07-16T13:38:15;3.08;;;1.40;;
74939;SDS011;63505;45.226;37.908;2023-07-16T13:40:41;2.75;;;1.40;;
74939;SDS011;63505;45.226;37.908;2023-07-16T13:43:07;2.83;;;1.17;;
74939;SDS011;63505;45.226;37.908;2023-07-16T13:45:33;3.35;;;1.10;;
74939;SDS011;63505;45.226;37.908;2023-07-16T13:47:59;3.50;;;1.17;;
74939;SDS011;63505;45.226;37.908;2023-07-16T13:50:26;3.90;;;1.40;;
74939;SDS011;63505;45.226;37.908;2023-07-16T13:52:52;5.15;;;1.88;;
74939;SDS011;63505;45.226;37.908;2023-07-16T13:55:18;4.30;;;1.40;;
74939;SDS011;63505;45.226;37.908;2023-07-16T13:57:44;5.40;;;1.58;;
74939;SDS011;63505;45.226;37.908;2023-07-16T14:00:11;7.25;;;1.55;;
74939;SDS011;63505;45.226;37.908;2023-07-16T14:02:38;3.90;;;1.70;;
74939;SDS011;63505;45.226;37.908;2023-07-16T14:05:04;2.70;;;1.58;;
74939;SDS011;63505;45.226;37.908;2023-07-16T14:07:30;4.95;;;1.63;;
74939;SDS011;63505;45.226;37.908;2023-07-16T14:09:56;2.63;;;1.60;;
74939;SDS011;63505;45.226;37.908;2023-07-16T14:12:22;3.85;;;1.42;;
74939;SDS011;63505;45.226;37.908;2023-07-16T14:14:48;2.08;;;1.05;;
74939;SDS011;63505;45.226;37.908;2023-07-16T14:17:14;3.35;;;1.30;;
74939;SDS011;63505;45.226;37.908;2023-07-16T14:19:40;6.43;;;1.60;;
74939;SDS011;63505;45.226;37.908;2023-07-16T14:22:09;2.90;;;1.10;;
74939;SDS011;63505;45.226;37.908;2023-07-16T14:24:39;4.43;;;1.48;;
74939;SDS011;63505;45.226;37.908;2023-07-16T14:27:06;10.57;;;1.58;;
74939;SDS011;63505;45.226;37.908;2023-07-16T14:29:36;4.07;;;1.75;;
74939;SDS011;63505;45.226;37.908;2023-07-16T14:32:04;5.50;;;1.90;;
74939;SDS011;63505;45.226;37.908;2023-07-16T14:34:30;2.85;;;1.60;;
74939;SDS011;63505;45.226;37.908;2023-07-16T14:36:57;2.60;;;1.55;;
74939;SDS011;63505;45.226;37.908;2023-07-16T14:39:23;3.58;;;2.20;;
74939;SDS011;63505;45.226;37.908;2023-07-16T14:41:50;10.82;;;1.85;;
74939;SDS011;63505;45.226;37.908;2023-07-16T14:44:16;7.03;;;2.08;;
74939;SDS011;63505;45.226;37.908;2023-07-16T14:46:42;3.05;;;1.70;;